sensor_id;sensor_type;location;lat;lon;timestamp;pressure;altitude;pressure_sealevel;temperature;humidity
21730;BME280;11027;51.030;13.812;2023-03-14T00:00:35;98141.28;;;12.55;86.16
21730;BME280;11027;51.030;13.812;2023-03-14T00:03:00;98165.25;;;12.53;86.31
21730;BME280;11027;51.030;13.812;2023-03-14T00:05:25;98155.41;;;12.52;86.24
21730;BME280;11027;51.030;13.812;2023-03-14T00:07:51;98151.03;;;12.51;86.23
21730;BME280;11027;51.030;13.812;2023-03-14T00:10:16;98125.38;;;12.52;86.30
21730;BME280;11027;51.030;13.812;2023-03-14T00:12:42;98126.69;;;12.50;86.18
21730;BME280;11027;51.030;13.812;2023-03-14T00:15:08;98129.69;;;12.48;86.54
21730;BME280;11027;51.030;13.812;2023-03-14T00:17:35;98099.03;;;12.46;86.40
21730;BME280;11027;51.030;13.812;2023-03-14T00:20:01;98088.59;;;12.43;86.35
21730;BME280;11027;51.030;13.812;2023-03-14T00:22:39;98070.22;;;12.38;86.40
21730;BME280;11027;51.030;13.812;2023-03-14T00:25:06;98072.03;;;12.33;86.68
21730;BME280;11027;51.030;13.812;2023-03-14T00:27:32;98073.34;;;12.30;86.59
21730;BME280;11027;51.030;13.812;2023-03-14T00:29:57;98075.72;;;12.27;86.75
21730;BME280;11027;51.030;13.812;2023-03-14T00:32:23;98072.63;;;12.23;87.01
21730;BME280;11027;51.030;13.812;2023-03-14T00:34:48;98082.75;;;12.23;87.16
21730;BME280;11027;51.030;13.812;2023-03-14T00:37:14;98073.97;;;12.20;87.26
21730;BME280;11027;51.030;13.812;2023-03-14T00:39:39;98071.22;;;12.20;87.07
21730;BME280;11027;51.030;13.812;2023-03-14T00:42:04;98097.22;;;12.23;87.03
21730;BME280;11027;51.030;13.812;2023-03-14T00:44:29;98105.63;;;12.21;86.79
21730;BME280;11027;51.030;13.812;2023-03-14T00:46:55;98121.09;;;12.16;87.00
21730;BME280;11027;51.030;13.812;2023-03-14T00:49:20;98129.03;;;12.17;87.24
21730;BME280;11027;51.030;13.812;2023-03-14T00:51:45;98113.81;;;12.21;87.32
21730;BME280;11027;51.030;13.812;2023-03-14T00:54:11;98117.13;;;12.24;86.91
21730;BME280;11027;51.030;13.812;2023-03-14T00:56:36;98113.34;;;12.25;86.78
21730;BME280;11027;51.030;13.812;2023-03-14T00:59:01;98116.06;;;12.25;86.92
21730;BME280;11027;51.030;13.812;2023-03-14T01:01:26;98113.00;;;12.21;87.20
21730;BME280;11027;51.030;13.812;2023-03-14T01:03:53;98124.75;;;12.21;87.04
21730;BME280;11027;51.030;13.812;2023-03-14T01:06:21;98126.06;;;12.19;87.01
21730;BME280;11027;51.030;13.812;2023-03-14T01:08:47;98126.56;;;12.16;87.12
21730;BME280;11027;51.030;13.812;2023-03-14T01:11:15;98124.53;;;12.11;87.00
21730;BME280;11027;51.030;13.812;2023-03-14T01:13:42;98128.81;;;12.07;87.34
21730;BME280;11027;51.030;13.812;2023-03-14T01:16:09;98138.06;;;12.06;87.33
21730;BME280;11027;51.030;13.812;2023-03-14T01:18:35;98129.31;;;12.04;87.48
21730;BME280;11027;51.030;13.812;2023-03-14T01:21:03;98121.34;;;12.03;87.30
21730;BME280;11027;51.030;13.812;2023-03-14T01:23:28;98109.13;;;12.05;87.04
21730;BME280;11027;51.030;13.812;2023-03-14T01:25:53;98102.00;;;12.04;87.07
21730;BME280;11027;51.030;13.812;2023-03-14T01:28:19;98105.34;;;12.06;86.60
21730;BME280;11027;51.030;13.812;2023-03-14T01:30:44;98102.09;;;12.09;86.57
21730;BME280;11027;51.030;13.812;2023-03-14T01:33:09;98113.59;;;12.11;86.40
21730;BME280;11027;51.030;13.812;2023-03-14T01:35:36;98107.09;;;12.12;86.50
21730;BME280;11027;51.030;13.812;2023-03-14T01:38:01;98115.88;;;12.14;86.22
21730;BME280;11027;51.030;13.812;2023-03-14T01:40:26;98120.00;;;12.17;86.05
21730;BME280;11027;51.030;13.812;2023-03-14T01:42:57;98120.25;;;12.15;85.77
21730;BME280;11027;51.030;13.812;2023-03-14T01:48:27;98114.69;;;12.10;85.67
21730;BME280;11027;51.030;13.812;2023-03-14T01:50:53;98111.13;;;12.10;85.95
21730;BME280;11027;51.030;13.812;2023-03-14T01:53:19;98108.16;;;12.11;85.47
21730;BME280;11027;51.030;13.812;2023-03-14T01:55:47;98096.41;;;12.11;85.46
21730;BME280;11027;51.030;13.812;2023-03-14T01:58:14;98088.00;;;12.12;85.52
21730;BME280;11027;51.030;13.812;2023-03-14T02:00:41;98084.19;;;12.13;85.26
21730;BME280;11027;51.030;13.812;2023-03-14T02:03:10;98088.00;;;12.12;84.98
21730;BME280;11027;51.030;13.812;2023-03-14T02:05:39;98098.66;;;12.14;84.87
21730;BME280;11027;51.030;13.812;2023-03-14T02:08:10;98082.25;;;12.14;84.59
21730;BME280;11027;51.030;13.812;2023-03-14T02:10:43;98089.28;;;12.10;84.47
21730;BME280;11027;51.030;13.812;2023-03-14T02:13:10;98079.22;;;12.10;84.11
21730;BME280;11027;51.030;13.812;2023-03-14T02:15:35;98078.13;;;12.11;84.00
21730;BME280;11027;51.030;13.812;2023-03-14T02:18:02;98087.41;;;12.10;83.73
21730;BME280;11027;51.030;13.812;2023-03-14T02:20:49;98073.16;;;12.08;83.70
21730;BME280;11027;51.030;13.812;2023-03-14T02:23:40;98079.69;;;12.07;83.63
21730;BME280;11027;51.030;13.812;2023-03-14T02:26:13;98068.28;;;12.10;83.03
21730;BME280;11027;51.030;13.812;2023-03-14T02:28:40;98075.91;;;12.08;83.00
21730;BME280;11027;51.030;13.812;2023-03-14T02:31:06;98068.75;;;12.07;82.59
21730;BME280;11027;51.030;13.812;2023-03-14T02:33:34;98068.41;;;12.04;82.82
21730;BME280;11027;51.030;13.812;2023-03-14T02:36:02;98062.13;;;12.03;82.39
21730;BME280;11027;51.030;13.812;2023-03-14T02:41:16;98067.75;;;11.96;82.14
21730;BME280;11027;51.030;13.812;2023-03-14T02:43:42;98068.47;;;11.92;82.05
21730;BME280;11027;51.030;13.812;2023-03-14T02:46:10;98075.34;;;11.94;82.18
21730;BME280;11027;51.030;13.812;2023-03-14T02:48:39;98076.16;;;11.95;81.79
21730;BME280;11027;51.030;13.812;2023-03-14T02:51:07;98074.25;;;11.95;81.67
21730;BME280;11027;51.030;13.812;2023-03-14T02:53:34;98084.09;;;11.96;81.65
21730;BME280;11027;51.030;13.812;2023-03-14T02:56:00;98083.59;;;11.99;81.69
21730;BME280;11027;51.030;13.812;2023-03-14T02:58:26;98089.41;;;12.03;81.36
21730;BME280;11027;51.030;13.812;2023-03-14T03:00:51;98082.31;;;12.02;81.34
21730;BME280;11027;51.030;13.812;2023-03-14T03:03:17;98085.63;;;12.04;81.13
21730;BME280;11027;51.030;13.812;2023-03-14T03:05:42;98070.91;;;12.05;80.47
21730;BME280;11027;51.030;13.812;2023-03-14T03:08:09;98072.09;;;12.09;80.27
21730;BME280;11027;51.030;13.812;2023-03-14T03:10:34;98071.13;;;12.15;79.52
21730;BME280;11027;51.030;13.812;2023-03-14T03:12:59;98048.81;;;12.18;79.12
21730;BME280;11027;51.030;13.812;2023-03-14T03:15:26;98037.06;;;12.18;78.82
21730;BME280;11027;51.030;13.812;2023-03-14T03:17:51;98041.59;;;12.12;78.62
21730;BME280;11027;51.030;13.812;2023-03-14T03:20:16;98039.84;;;12.06;78.46
21730;BME280;11027;51.030;13.812;2023-03-14T03:22:41;98041.47;;;12.07;78.79
21730;BME280;11027;51.030;13.812;2023-03-14T03:25:08;98045.28;;;12.06;78.51
21730;BME280;11027;51.030;13.812;2023-03-14T03:27:35;98049.44;;;12.09;78.29
21730;BME280;11027;51.030;13.812;2023-03-14T03:30:02;98052.41;;;12.07;78.04
21730;BME280;11027;51.030;13.812;2023-03-14T03:32:27;98058.94;;;12.06;77.76
21730;BME280;11027;51.030;13.812;2023-03-14T03:34:52;98061.16;;;12.09;77.47
21730;BME280;11027;51.030;13.812;2023-03-14T03:37:18;98069.34;;;12.09;77.17
21730;BME280;11027;51.030;13.812;2023-03-14T03:39:43;98067.44;;;12.10;77.33
21730;BME280;11027;51.030;13.812;2023-03-14T03:42:08;98072.09;;;12.09;77.03
21730;BME280;11027;51.030;13.812;2023-03-14T03:44:34;98086.69;;;12.03;77.04
21730;BME280;11027;51.030;13.812;2023-03-14T03:47:00;98081.22;;;12.03;76.98
21730;BME280;11027;51.030;13.812;2023-03-14T03:49:29;98073.06;;;12.03;77.13
21730;BME280;11027;51.030;13.812;2023-03-14T03:51:54;98065.94;;;12.02;77.08
21730;BME280;11027;51.030;13.812;2023-03-14T03:54:20;98072.47;;;12.01;77.04
21730;BME280;11027;51.030;13.812;2023-03-14T03:56:45;98057.66;;;11.97;76.88
21730;BME280;11027;51.030;13.812;2023-03-14T03:59:10;98067.38;;;11.93;76.54
21730;BME280;11027;51.030;13.812;2023-03-14T04:01:35;98049.94;;;11.94;76.64
21730;BME280;11027;51.030;13.812;2023-03-14T04:04:01;98056.97;;;11.90;76.01
21730;BME280;11027;51.030;13.812;2023-03-14T04:06:26;98046.50;;;11.87;75.68
21730;BME280;11027;51.030;13.812;2023-03-14T04:08:51;98043.91;;;11.92;75.64
21730;BME280;11027;51.030;13.812;2023-03-14T04:11:16;98039.50;;;11.91;75.26
21730;BME280;11027;51.030;13.812;2023-03-14T04:13:42;98047.22;;;11.94;75.23
21730;BME280;11027;51.030;13.812;2023-03-14T04:16:16;98038.31;;;11.98;75.05
21730;BME280;11027;51.030;13.812;2023-03-14T04:18:42;98041.28;;;11.97;74.10
21730;BME280;11027;51.030;13.812;2023-03-14T04:21:07;98051.72;;;12.00;72.84
21730;BME280;11027;51.030;13.812;2023-03-14T04:23:33;98062.63;;;12.00;72.32
21730;BME280;11027;51.030;13.812;2023-03-14T04:25:58;98052.91;;;12.04;71.21
21730;BME280;11027;51.030;13.812;2023-03-14T04:28:24;98043.16;;;12.08;71.25
21730;BME280;11027;51.030;13.812;2023-03-14T04:30:49;98062.84;;;12.10;71.40
21730;BME280;11027;51.030;13.812;2023-03-14T04:33:14;98059.03;;;12.11;71.45
21730;BME280;11027;51.030;13.812;2023-03-14T04:35:43;98057.38;;;12.10;71.04
21730;BME280;11027;51.030;13.812;2023-03-14T04:38:08;98055.25;;;12.12;70.62
21730;BME280;11027;51.030;13.812;2023-03-14T04:40:33;98048.09;;;12.11;70.30
21730;BME280;11027;51.030;13.812;2023-03-14T04:42:58;98049.78;;;12.12;70.81
21730;BME280;11027;51.030;13.812;2023-03-14T04:45:23;98047.63;;;12.14;70.75
21730;BME280;11027;51.030;13.812;2023-03-14T04:47:49;98039.22;;;12.16;71.07
21730;BME280;11027;51.030;13.812;2023-03-14T04:50:14;98036.72;;;12.14;70.80
21730;BME280;11027;51.030;13.812;2023-03-14T04:52:39;98032.31;;;12.13;70.37
21730;BME280;11027;51.030;13.812;2023-03-14T04:55:05;98033.41;;;12.12;70.18
21730;BME280;11027;51.030;13.812;2023-03-14T04:57:30;98030.09;;;12.10;69.85
21730;BME280;11027;51.030;13.812;2023-03-14T04:59:55;98033.06;;;12.09;69.80
21730;BME280;11027;51.030;13.812;2023-03-14T05:02:24;98041.47;;;12.07;70.01
21730;BME280;11027;51.030;13.812;2023-03-14T05:04:50;98042.78;;;12.05;69.43
21730;BME280;11027;51.030;13.812;2023-03-14T05:07:16;98038.66;;;12.02;69.35
21730;BME280;11027;51.030;13.812;2023-03-14T05:09:41;98032.63;;;12.00;69.34
21730;BME280;11027;51.030;13.812;2023-03-14T05:12:06;98023.59;;;11.99;69.21
21730;BME280;11027;51.030;13.812;2023-03-14T05:14:31;98022.75;;;11.99;68.97
21730;BME280;11027;51.030;13.812;2023-03-14T05:16:57;98017.31;;;11.99;69.17
21730;BME280;11027;51.030;13.812;2023-03-14T05:19:22;98014.56;;;11.99;69.13
21730;BME280;11027;51.030;13.812;2023-03-14T05:21:47;98029.88;;;12.00;68.48
21730;BME280;11027;51.030;13.812;2023-03-14T05:24:12;98049.22;;;11.98;68.51
21730;BME280;11027;51.030;13.812;2023-03-14T05:26:38;98048.41;;;11.98;68.64
21730;BME280;11027;51.030;13.812;2023-03-14T05:29:03;98039.13;;;11.99;68.12
21730;BME280;11027;51.030;13.812;2023-03-14T05:31:28;98044.81;;;11.97;68.42
21730;BME280;11027;51.030;13.812;2023-03-14T05:33:53;98041.28;;;11.97;68.09
21730;BME280;11027;51.030;13.812;2023-03-14T05:36:19;98042.94;;;11.98;68.01
21730;BME280;11027;51.030;13.812;2023-03-14T05:38:44;98016.13;;;11.95;68.18
21730;BME280;11027;51.030;13.812;2023-03-14T05:41:09;98015.31;;;11.94;67.93
21730;BME280;11027;51.030;13.812;2023-03-14T05:43:34;98013.97;;;11.97;68.12
21730;BME280;11027;51.030;13.812;2023-03-14T05:46:00;98011.84;;;11.99;68.09
21730;BME280;11027;51.030;13.812;2023-03-14T05:48:25;98001.16;;;11.97;67.88
21730;BME280;11027;51.030;13.812;2023-03-14T05:50:57;98003.06;;;11.97;67.59
21730;BME280;11027;51.030;13.812;2023-03-14T05:53:22;98004.75;;;11.98;67.57
21730;BME280;11027;51.030;13.812;2023-03-14T05:55:51;98004.75;;;11.98;67.58
21730;BME280;11027;51.030;13.812;2023-03-14T05:58:16;98007.47;;;11.98;67.58
21730;BME280;11027;51.030;13.812;2023-03-14T06:00:41;98003.66;;;11.99;67.56
21730;BME280;11027;51.030;13.812;2023-03-14T06:03:06;98003.41;;;12.00;67.23
21730;BME280;11027;51.030;13.812;2023-03-14T06:05:32;98011.38;;;12.02;67.22
21730;BME280;11027;51.030;13.812;2023-03-14T06:07:57;98002.09;;;12.03;67.41
21730;BME280;11027;51.030;13.812;2023-03-14T06:10:22;98007.91;;;12.07;66.93
21730;BME280;11027;51.030;13.812;2023-03-14T06:12:48;98012.03;;;12.09;67.21
21730;BME280;11027;51.030;13.812;2023-03-14T06:15:13;98005.53;;;12.10;67.05
21730;BME280;11027;51.030;13.812;2023-03-14T06:17:38;98001.72;;;12.11;67.17
21730;BME280;11027;51.030;13.812;2023-03-14T06:20:04;98004.44;;;12.11;67.02
21730;BME280;11027;51.030;13.812;2023-03-14T06:22:29;98018.69;;;12.13;67.09
21730;BME280;11027;51.030;13.812;2023-03-14T06:24:54;98025.81;;;12.14;67.07
21730;BME280;11027;51.030;13.812;2023-03-14T06:27:20;98024.72;;;12.15;67.33
21730;BME280;11027;51.030;13.812;2023-03-14T06:29:45;98025.81;;;12.14;66.88
21730;BME280;11027;51.030;13.812;2023-03-14T06:32:10;98025.31;;;12.17;66.36
21730;BME280;11027;51.030;13.812;2023-03-14T06:34:35;98041.22;;;12.20;66.66
21730;BME280;11027;51.030;13.812;2023-03-14T06:37:01;98038.81;;;12.24;66.41
21730;BME280;11027;51.030;13.812;2023-03-14T06:39:26;98040.22;;;12.27;66.22
21730;BME280;11027;51.030;13.812;2023-03-14T06:41:51;98049.00;;;12.29;66.25
21730;BME280;11027;51.030;13.812;2023-03-14T06:44:16;98062.75;;;12.34;66.20
21730;BME280;11027;51.030;13.812;2023-03-14T06:46:42;98057.63;;;12.37;66.27
21730;BME280;11027;51.030;13.812;2023-03-14T06:49:07;98073.84;;;12.44;66.03
21730;BME280;11027;51.030;13.812;2023-03-14T06:51:32;98064.13;;;12.48;66.33
21730;BME280;11027;51.030;13.812;2023-03-14T06:53:58;98058.16;;;12.51;66.11
21730;BME280;11027;51.030;13.812;2023-03-14T06:56:23;98046.25;;;12.57;66.01
21730;BME280;11027;51.030;13.812;2023-03-14T06:58:48;98044.13;;;12.59;65.84
21730;BME280;11027;51.030;13.812;2023-03-14T07:01:20;98045.78;;;12.60;65.54
21730;BME280;11027;51.030;13.812;2023-03-14T07:03:46;98060.03;;;12.63;65.67
21730;BME280;11027;51.030;13.812;2023-03-14T07:06:11;98055.63;;;12.61;65.50
21730;BME280;11027;51.030;13.812;2023-03-14T07:08:36;98057.88;;;12.65;65.36
21730;BME280;11027;51.030;13.812;2023-03-14T07:11:03;98057.38;;;12.68;65.35
21730;BME280;11027;51.030;13.812;2023-03-14T07:13:28;98048.94;;;12.69;65.29
21730;BME280;11027;51.030;13.812;2023-03-14T07:15:53;98056.91;;;12.71;65.31
21730;BME280;11027;51.030;13.812;2023-03-14T07:18:19;98069.47;;;12.72;65.63
21730;BME280;11027;51.030;13.812;2023-03-14T07:20:45;98060.22;;;12.73;65.80
21730;BME280;11027;51.030;13.812;2023-03-14T07:23:10;98069.00;;;12.75;65.70
21730;BME280;11027;51.030;13.812;2023-03-14T07:25:35;98070.63;;;12.76;65.79
21730;BME280;11027;51.030;13.812;2023-03-14T07:28:01;98067.91;;;12.76;65.96
21730;BME280;11027;51.030;13.812;2023-03-14T07:30:26;98071.22;;;12.78;65.95
21730;BME280;11027;51.030;13.812;2023-03-14T07:32:51;98060.88;;;12.80;65.78
21730;BME280;11027;51.030;13.812;2023-03-14T07:35:16;98060.38;;;12.83;65.58
21730;BME280;11027;51.030;13.812;2023-03-14T07:37:42;98067.50;;;12.84;65.57
21730;BME280;11027;51.030;13.812;2023-03-14T07:40:07;98054.91;;;12.83;65.74
21730;BME280;11027;51.030;13.812;2023-03-14T07:42:33;98054.91;;;12.83;65.76
21730;BME280;11027;51.030;13.812;2023-03-14T07:44:58;98058.22;;;12.85;66.12
21730;BME280;11027;51.030;13.812;2023-03-14T07:47:24;98058.22;;;12.85;65.70
21730;BME280;11027;51.030;13.812;2023-03-14T07:49:49;98063.69;;;12.85;66.01
21730;BME280;11027;51.030;13.812;2023-03-14T07:52:14;98070.81;;;12.86;65.66
21730;BME280;11027;51.030;13.812;2023-03-14T07:54:39;98068.66;;;12.88;65.55
21730;BME280;11027;51.030;13.812;2023-03-14T07:57:05;98070.31;;;12.89;66.05
21730;BME280;11027;51.030;13.812;2023-03-14T07:59:30;98062.38;;;12.88;65.96
21730;BME280;11027;51.030;13.812;2023-03-14T08:01:55;98054.75;;;12.90;66.31
21730;BME280;11027;51.030;13.812;2023-03-14T08:04:21;98055.09;;;12.93;66.13
21730;BME280;11027;51.030;13.812;2023-03-14T08:06:46;98049.13;;;12.96;66.21
21730;BME280;11027;51.030;13.812;2023-03-14T08:09:11;98057.59;;;12.95;65.98
21730;BME280;11027;51.030;13.812;2023-03-14T08:11:36;98046.31;;;12.91;66.35
21730;BME280;11027;51.030;13.812;2023-03-14T08:14:02;98040.28;;;12.89;66.24
21730;BME280;11027;51.030;13.812;2023-03-14T08:16:27;98039.75;;;12.92;66.24
21730;BME280;11027;51.030;13.812;2023-03-14T08:18:52;98057.25;;;12.91;65.82
21730;BME280;11027;51.030;13.812;2023-03-14T08:21:18;98052.59;;;12.92;65.43
21730;BME280;11027;51.030;13.812;2023-03-14T08:23:43;98049.06;;;12.91;64.96
21730;BME280;11027;51.030;13.812;2023-03-14T08:26:08;98060.22;;;12.90;64.81
21730;BME280;11027;51.030;13.812;2023-03-14T08:28:33;98054.00;;;12.94;64.84
21730;BME280;11027;51.030;13.812;2023-03-14T08:31:00;98057.41;;;13.01;63.87
21730;BME280;11027;51.030;13.812;2023-03-14T08:33:27;98058.16;;;13.14;63.56
21730;BME280;11027;51.030;13.812;2023-03-14T08:35:58;98058.09;;;13.26;63.47
21730;BME280;11027;51.030;13.812;2023-03-14T08:38:24;98051.47;;;13.38;62.23
21730;BME280;11027;51.030;13.812;2023-03-14T08:40:55;98057.09;;;13.49;61.73
21730;BME280;11027;51.030;13.812;2023-03-14T08:43:20;98054.09;;;13.50;60.73
21730;BME280;11027;51.030;13.812;2023-03-14T08:45:45;98052.28;;;13.56;60.03
21730;BME280;11027;51.030;13.812;2023-03-14T08:48:10;98067.16;;;13.65;59.57
21730;BME280;11027;51.030;13.812;2023-03-14T08:50:36;98049.16;;;13.69;59.38
21730;BME280;11027;51.030;13.812;2023-03-14T08:53:01;98052.06;;;13.79;59.42
21730;BME280;11027;51.030;13.812;2023-03-14T08:55:27;98051.06;;;13.86;58.70
21730;BME280;11027;51.030;13.812;2023-03-14T08:57:53;98037.41;;;13.91;58.32
21730;BME280;11027;51.030;13.812;2023-03-14T09:00:18;98038.56;;;13.95;58.24
21730;BME280;11027;51.030;13.812;2023-03-14T09:02:44;98041.63;;;13.98;58.53
21730;BME280;11027;51.030;13.812;2023-03-14T09:05:09;98047.34;;;13.97;58.01
21730;BME280;11027;51.030;13.812;2023-03-14T09:07:35;98049.75;;;13.93;58.42
21730;BME280;11027;51.030;13.812;2023-03-14T09:10:01;98054.38;;;13.88;57.95
21730;BME280;11027;51.030;13.812;2023-03-14T09:12:26;98053.38;;;13.77;57.57
21730;BME280;11027;51.030;13.812;2023-03-14T09:14:52;98047.09;;;13.76;58.14
21730;BME280;11027;51.030;13.812;2023-03-14T09:17:17;98043.84;;;13.79;58.21
21730;BME280;11027;51.030;13.812;2023-03-14T09:19:42;98036.59;;;13.90;57.83
21730;BME280;11027;51.030;13.812;2023-03-14T09:22:07;98028.00;;;14.04;58.14
21730;BME280;11027;51.030;13.812;2023-03-14T09:24:32;98025.69;;;14.17;57.99
21730;BME280;11027;51.030;13.812;2023-03-14T09:26:58;98031.84;;;14.30;58.02
21730;BME280;11027;51.030;13.812;2023-03-14T09:29:23;98033.56;;;14.36;58.21
21730;BME280;11027;51.030;13.812;2023-03-14T09:31:49;98039.56;;;14.33;57.76
21730;BME280;11027;51.030;13.812;2023-03-14T09:34:14;98036.25;;;14.31;57.62
21730;BME280;11027;51.030;13.812;2023-03-14T09:36:40;98047.66;;;14.23;57.72
21730;BME280;11027;51.030;13.812;2023-03-14T09:39:05;98038.00;;;14.15;57.89
21730;BME280;11027;51.030;13.812;2023-03-14T09:41:37;98050.47;;;14.06;58.05
21730;BME280;11027;51.030;13.812;2023-03-14T09:44:06;98049.03;;;13.98;57.81
21730;BME280;11027;51.030;13.812;2023-03-14T09:46:35;98050.63;;;13.94;58.23
21730;BME280;11027;51.030;13.812;2023-03-14T09:49:02;98044.28;;;13.93;58.05
21730;BME280;11027;51.030;13.812;2023-03-14T09:51:28;98046.22;;;13.93;58.49
21730;BME280;11027;51.030;13.812;2023-03-14T09:53:54;98054.28;;;13.83;58.23
21730;BME280;11027;51.030;13.812;2023-03-14T09:56:23;98045.13;;;13.72;58.40
21730;BME280;11027;51.030;13.812;2023-03-14T09:58:58;98057.31;;;13.64;58.17
21730;BME280;11027;51.030;13.812;2023-03-14T10:01:28;98057.22;;;13.59;58.17
21730;BME280;11027;51.030;13.812;2023-03-14T10:03:55;98061.88;;;13.58;58.61
21730;BME280;11027;51.030;13.812;2023-03-14T10:06:24;98066.53;;;13.58;58.17
21730;BME280;11027;51.030;13.812;2023-03-14T10:08:50;98051.50;;;13.60;58.26
21730;BME280;11027;51.030;13.812;2023-03-14T10:11:18;98052.91;;;13.63;58.63
21730;BME280;11027;51.030;13.812;2023-03-14T10:14:10;98061.69;;;13.65;58.29
21730;BME280;11027;51.030;13.812;2023-03-14T10:16:41;98064.94;;;13.62;57.62
21730;BME280;11027;51.030;13.812;2023-03-14T10:19:10;98072.50;;;13.55;57.56
21730;BME280;11027;51.030;13.812;2023-03-14T10:21:38;98067.53;;;13.52;57.68
21730;BME280;11027;51.030;13.812;2023-03-14T10:24:28;98073.00;;;13.52;57.70
21730;BME280;11027;51.030;13.812;2023-03-14T10:26:59;98055.50;;;13.53;57.69
21730;BME280;11027;51.030;13.812;2023-03-14T10:29:26;98061.25;;;13.51;57.89
21730;BME280;11027;51.030;13.812;2023-03-14T10:32:01;98058.75;;;13.50;57.65
21730;BME280;11027;51.030;13.812;2023-03-14T10:34:31;98053.91;;;13.57;57.91
21730;BME280;11027;51.030;13.812;2023-03-14T10:37:05;98056.75;;;13.62;58.00
21730;BME280;11027;51.030;13.812;2023-03-14T10:39:51;98049.16;;;13.69;57.79
21730;BME280;11027;51.030;13.812;2023-03-14T10:42:24;98047.09;;;13.76;57.03
21730;BME280;11027;51.030;13.812;2023-03-14T10:44:55;98049.25;;;13.74;57.17
21730;BME280;11027;51.030;13.812;2023-03-14T10:47:23;98052.56;;;13.76;57.11
21730;BME280;11027;51.030;13.812;2023-03-14T10:49:49;98054.53;;;13.81;57.29
21730;BME280;11027;51.030;13.812;2023-03-14T10:54:54;98055.75;;;13.90;56.67
21730;BME280;11027;51.030;13.812;2023-03-14T10:57:21;98040.41;;;13.89;56.29
21730;BME280;11027;51.030;13.812;2023-03-14T10:59:47;98045.63;;;13.91;56.53
21730;BME280;11027;51.030;13.812;2023-03-14T11:02:47;98057.16;;;13.93;56.84
21730;BME280;11027;51.030;13.812;2023-03-14T11:05:30;98042.41;;;13.94;56.45
21730;BME280;11027;51.030;13.812;2023-03-14T11:08:07;98046.22;;;13.93;56.72
21730;BME280;11027;51.030;13.812;2023-03-14T11:10:35;98042.13;;;13.95;56.71
21730;BME280;11027;51.030;13.812;2023-03-14T11:13:25;98046.84;;;14.00;56.31
21730;BME280;11027;51.030;13.812;2023-03-14T11:24:18;98047.16;;;14.26;56.78
21730;BME280;11027;51.030;13.812;2023-03-14T11:27:18;98040.06;;;14.30;56.44
21730;BME280;11027;51.030;13.812;2023-03-14T11:30:05;98031.84;;;14.30;55.96
21730;BME280;11027;51.030;13.812;2023-03-14T11:32:59;98039.00;;;14.31;55.59
21730;BME280;11027;51.030;13.812;2023-03-14T11:38:04;98038.78;;;14.59;55.11
21730;BME280;11027;51.030;13.812;2023-03-14T11:40:31;98024.59;;;14.95;54.79
21730;BME280;11027;51.030;13.812;2023-03-14T11:43:06;98027.31;;;15.27;53.60
21730;BME280;11027;51.030;13.812;2023-03-14T11:45:37;98029.03;;;15.38;52.72
21730;BME280;11027;51.030;13.812;2023-03-14T11:48:33;98020.28;;;15.42;52.98
21730;BME280;11027;51.030;13.812;2023-03-14T11:51:02;98016.13;;;15.39;52.60
21730;BME280;11027;51.030;13.812;2023-03-14T11:53:44;98015.81;;;15.30;52.50
21730;BME280;11027;51.030;13.812;2023-03-14T11:56:19;98001.72;;;15.16;52.98
21730;BME280;11027;51.030;13.812;2023-03-14T11:58:57;98005.66;;;14.93;53.09
21730;BME280;11027;51.030;13.812;2023-03-14T12:01:29;98002.78;;;14.78;53.29
21730;BME280;11027;51.030;13.812;2023-03-14T12:06:56;97998.44;;;14.55;53.56
21730;BME280;11027;51.030;13.812;2023-03-14T12:09:23;97996.50;;;14.50;53.40
21730;BME280;11027;51.030;13.812;2023-03-14T12:11:57;97997.63;;;14.54;53.47
21730;BME280;11027;51.030;13.812;2023-03-14T12:14:25;97993.66;;;14.67;53.35
21730;BME280;11027;51.030;13.812;2023-03-14T12:16:57;97986.47;;;14.93;53.60
21730;BME280;11027;51.030;13.812;2023-03-14T12:21:51;97972.88;;;15.51;52.52
21730;BME280;11027;51.030;13.812;2023-03-14T12:24:20;97974.94;;;15.76;51.21
21730;BME280;11027;51.030;13.812;2023-03-14T12:26:54;97970.09;;;15.94;50.70
21730;BME280;11027;51.030;13.812;2023-03-14T12:29:20;97967.94;;;16.06;50.26
21730;BME280;11027;51.030;13.812;2023-03-14T12:32:09;97972.88;;;16.19;50.74
21730;BME280;11027;51.030;13.812;2023-03-14T12:34:34;97980.91;;;16.42;50.23
21730;BME280;11027;51.030;13.812;2023-03-14T12:37:17;97966.97;;;16.84;49.61
21730;BME280;11027;51.030;13.812;2023-03-14T12:39:58;97980.72;;;16.89;49.43
21730;BME280;11027;51.030;13.812;2023-03-14T12:50:12;97983.13;;;16.60;50.33
21730;BME280;11027;51.030;13.812;2023-03-14T12:53:07;97984.50;;;16.57;50.77
21730;BME280;11027;51.030;13.812;2023-03-14T12:55:50;97980.69;;;16.69;51.08
21730;BME280;11027;51.030;13.812;2023-03-14T12:58:30;97960.34;;;16.80;50.00
21730;BME280;11027;51.030;13.812;2023-03-14T13:00:59;97962.53;;;16.78;50.03
21730;BME280;11027;51.030;13.812;2023-03-14T13:03:37;97947.16;;;16.82;48.88
21730;BME280;11027;51.030;13.812;2023-03-14T13:06:04;97950.44;;;17.05;49.21
21730;BME280;11027;51.030;13.812;2023-03-14T13:11:03;97955.06;;;17.35;47.93
21730;BME280;11027;51.030;13.812;2023-03-14T13:13:29;97959.75;;;17.34;46.70
21730;BME280;11027;51.030;13.812;2023-03-14T13:15:57;97962.00;;;17.12;46.26
21730;BME280;11027;51.030;13.812;2023-03-14T13:18:41;97951.56;;;16.88;47.17
21730;BME280;11027;51.030;13.812;2023-03-14T13:21:21;97975.16;;;17.40;46.09
21730;BME280;11027;51.030;13.812;2023-03-14T13:23:58;97960.72;;;17.90;45.54
21730;BME280;11027;51.030;13.812;2023-03-14T13:26:32;97939.84;;;18.68;44.79
21730;BME280;11027;51.030;13.812;2023-03-14T13:28:58;97963.31;;;20.68;41.19